sensor_id;sensor_type;location;lat;lon;timestamp;pressure;altitude;pressure_sealevel;temperature
12875;BMP180;6505;51.114;13.128;2023-03-13T00:01:23;98752.00;;;13.20
12875;BMP180;6505;51.114;13.128;2023-03-13T00:03:51;98749.00;;;13.20
12875;BMP180;6505;51.114;13.128;2023-03-13T00:06:22;98752.00;;;13.20
12875;BMP180;6505;51.114;13.128;2023-03-13T00:08:53;98745.00;;;13.20
12875;BMP180;6505;51.114;13.128;2023-03-13T00:11:21;98746.00;;;13.20
12875;BMP180;6505;51.114;13.128;2023-03-13T00:13:53;98736.00;;;13.20
12875;BMP180;6505;51.114;13.128;2023-03-13T00:16:22;98690.00;;;13.20
12875;BMP180;6505;51.114;13.128;2023-03-13T00:18:52;98738.00;;;13.20
12875;BMP180;6505;51.114;13.128;2023-03-13T00:21:23;98737.00;;;13.20
12875;BMP180;6505;51.114;13.128;2023-03-13T00:23:53;98724.00;;;13.30
12875;BMP180;6505;51.114;13.128;2023-03-13T00:26:23;98729.00;;;13.20
12875;BMP180;6505;51.114;13.128;2023-03-13T00:28:52;98743.00;;;13.30
12875;BMP180;6505;51.114;13.128;2023-03-13T00:31:22;98744.00;;;13.30
12875;BMP180;6505;51.114;13.128;2023-03-13T00:33:54;98739.00;;;13.30
12875;BMP180;6505;51.114;13.128;2023-03-13T00:36:24;98730.00;;;13.30
12875;BMP180;6505;51.114;13.128;2023-03-13T00:38:55;98720.00;;;13.30
12875;BMP180;6505;51.114;13.128;2023-03-13T00:41:25;98698.00;;;13.30
12875;BMP180;6505;51.114;13.128;2023-03-13T00:43:54;98730.00;;;13.30
12875;BMP180;6505;51.114;13.128;2023-03-13T00:46:25;98743.00;;;13.30
12875;BMP180;6505;51.114;13.128;2023-03-13T00:48:54;98728.00;;;13.30
12875;BMP180;6505;51.114;13.128;2023-03-13T00:51:23;98740.00;;;13.30
12875;BMP180;6505;51.114;13.128;2023-03-13T00:53:55;98731.00;;;13.30
12875;BMP180;6505;51.114;13.128;2023-03-13T00:56:26;98660.00;;;13.30
12875;BMP180;6505;51.114;13.128;2023-03-13T00:58:55;98719.00;;;13.40
12875;BMP180;6505;51.114;13.128;2023-03-13T01:01:25;98713.00;;;13.40
12875;BMP180;6505;51.114;13.128;2023-03-13T01:03:56;98719.00;;;13.40
12875;BMP180;6505;51.114;13.128;2023-03-13T01:06:27;98719.00;;;13.40
12875;BMP180;6505;51.114;13.128;2023-03-13T01:08:59;98717.00;;;13.40
12875;BMP180;6505;51.114;13.128;2023-03-13T01:11:29;98722.00;;;13.40
12875;BMP180;6505;51.114;13.128;2023-03-13T01:14:00;98720.00;;;13.40
12875;BMP180;6505;51.114;13.128;2023-03-13T01:16:31;98720.00;;;13.40
12875;BMP180;6505;51.114;13.128;2023-03-13T01:19:05;98717.00;;;13.40
12875;BMP180;6505;51.114;13.128;2023-03-13T01:21:34;98715.00;;;13.50
12875;BMP180;6505;51.114;13.128;2023-03-13T01:24:04;98715.00;;;13.40
12875;BMP180;6505;51.114;13.128;2023-03-13T01:26:32;98717.00;;;13.50
12875;BMP180;6505;51.114;13.128;2023-03-13T01:28:59;98715.00;;;13.50
12875;BMP180;6505;51.114;13.128;2023-03-13T01:31:30;98711.00;;;13.50
12875;BMP180;6505;51.114;13.128;2023-03-13T01:34:01;98708.00;;;13.50
12875;BMP180;6505;51.114;13.128;2023-03-13T01:36:31;98709.00;;;13.50
12875;BMP180;6505;51.114;13.128;2023-03-13T01:39:00;98699.00;;;13.50
12875;BMP180;6505;51.114;13.128;2023-03-13T01:41:30;98707.00;;;13.50
12875;BMP180;6505;51.114;13.128;2023-03-13T01:43:58;98706.00;;;13.50
12875;BMP180;6505;51.114;13.128;2023-03-13T01:46:36;98705.00;;;13.50
12875;BMP180;6505;51.114;13.128;2023-03-13T01:49:16;98693.00;;;13.50
12875;BMP180;6505;51.114;13.128;2023-03-13T01:51:57;98694.00;;;13.50
12875;BMP180;6505;51.114;13.128;2023-03-13T01:54:31;98696.00;;;13.50
12875;BMP180;6505;51.114;13.128;2023-03-13T01:57:08;98684.00;;;13.50
12875;BMP180;6505;51.114;13.128;2023-03-13T01:59:42;98666.00;;;13.50
12875;BMP180;6505;51.114;13.128;2023-03-13T02:02:12;98663.00;;;13.50
12875;BMP180;6505;51.114;13.128;2023-03-13T02:04:46;98666.00;;;13.50
12875;BMP180;6505;51.114;13.128;2023-03-13T02:07:19;98612.00;;;13.50
12875;BMP180;6505;51.114;13.128;2023-03-13T02:09:53;98656.00;;;13.50
12875;BMP180;6505;51.114;13.128;2023-03-13T02:12:30;98658.00;;;13.50
12875;BMP180;6505;51.114;13.128;2023-03-13T02:15:04;98665.00;;;13.50
12875;BMP180;6505;51.114;13.128;2023-03-13T02:17:35;98667.00;;;13.50
12875;BMP180;6505;51.114;13.128;2023-03-13T02:20:04;98653.00;;;13.50
12875;BMP180;6505;51.114;13.128;2023-03-13T02:22:41;98660.00;;;13.50
12875;BMP180;6505;51.114;13.128;2023-03-13T02:25:25;98658.00;;;13.50
12875;BMP180;6505;51.114;13.128;2023-03-13T02:28:00;98652.00;;;13.50
12875;BMP180;6505;51.114;13.128;2023-03-13T02:30:32;98650.00;;;13.60
12875;BMP180;6505;51.114;13.128;2023-03-13T02:33:03;98655.00;;;13.60
12875;BMP180;6505;51.114;13.128;2023-03-13T02:35:34;98639.00;;;13.60
12875;BMP180;6505;51.114;13.128;2023-03-13T02:38:11;98611.00;;;13.60
12875;BMP180;6505;51.114;13.128;2023-03-13T02:40:46;98647.00;;;13.60
12875;BMP180;6505;51.114;13.128;2023-03-13T02:43:19;98647.00;;;13.60
12875;BMP180;6505;51.114;13.128;2023-03-13T02:46:03;98649.00;;;13.60
12875;BMP180;6505;51.114;13.128;2023-03-13T02:48:38;98656.00;;;13.60
12875;BMP180;6505;51.114;13.128;2023-03-13T02:51:17;98656.00;;;13.60
12875;BMP180;6505;51.114;13.128;2023-03-13T02:53:46;98646.00;;;13.60
12875;BMP180;6505;51.114;13.128;2023-03-13T02:56:20;98611.00;;;13.60
12875;BMP180;6505;51.114;13.128;2023-03-13T02:58:50;98650.00;;;13.60
12875;BMP180;6505;51.114;13.128;2023-03-13T03:01:22;98634.00;;;13.60
12875;BMP180;6505;51.114;13.128;2023-03-13T03:03:50;98633.00;;;13.60
12875;BMP180;6505;51.114;13.128;2023-03-13T03:06:19;98628.00;;;13.60
12875;BMP180;6505;51.114;13.128;2023-03-13T03:08:48;98612.00;;;13.60
12875;BMP180;6505;51.114;13.128;2023-03-13T03:11:18;98612.00;;;13.60
12875;BMP180;6505;51.114;13.128;2023-03-13T03:13:51;98611.00;;;13.60
12875;BMP180;6505;51.114;13.128;2023-03-13T03:16:20;98606.00;;;13.60
12875;BMP180;6505;51.114;13.128;2023-03-13T03:18:48;98611.00;;;13.60
12875;BMP180;6505;51.114;13.128;2023-03-13T03:21:16;98605.00;;;13.70
12875;BMP180;6505;51.114;13.128;2023-03-13T03:23:44;98596.00;;;13.70
12875;BMP180;6505;51.114;13.128;2023-03-13T03:26:12;98591.00;;;13.70
12875;BMP180;6505;51.114;13.128;2023-03-13T03:28:41;98589.00;;;13.70
12875;BMP180;6505;51.114;13.128;2023-03-13T03:31:14;98586.00;;;13.70
12875;BMP180;6505;51.114;13.128;2023-03-13T03:33:43;98592.00;;;13.70
12875;BMP180;6505;51.114;13.128;2023-03-13T03:36:16;98536.00;;;13.70
12875;BMP180;6505;51.114;13.128;2023-03-13T03:38:45;98580.00;;;13.70
12875;BMP180;6505;51.114;13.128;2023-03-13T03:41:17;98565.00;;;13.70
12875;BMP180;6505;51.114;13.128;2023-03-13T03:43:47;98567.00;;;13.70
12875;BMP180;6505;51.114;13.128;2023-03-13T03:46:19;98556.00;;;13.70
12875;BMP180;6505;51.114;13.128;2023-03-13T03:48:47;98549.00;;;13.70
12875;BMP180;6505;51.114;13.128;2023-03-13T03:51:15;98545.00;;;13.70
12875;BMP180;6505;51.114;13.128;2023-03-13T03:53:45;98553.00;;;13.70
12875;BMP180;6505;51.114;13.128;2023-03-13T03:56:13;98548.00;;;13.70
12875;BMP180;6505;51.114;13.128;2023-03-13T03:58:48;98552.00;;;13.70
12875;BMP180;6505;51.114;13.128;2023-03-13T04:01:22;98546.00;;;13.80
12875;BMP180;6505;51.114;13.128;2023-03-13T04:03:50;98545.00;;;13.80
12875;BMP180;6505;51.114;13.128;2023-03-13T04:06:18;98531.00;;;13.80
12875;BMP180;6505;51.114;13.128;2023-03-13T04:08:46;98534.00;;;13.70
12875;BMP180;6505;51.114;13.128;2023-03-13T04:11:17;98513.00;;;13.80
12875;BMP180;6505;51.114;13.128;2023-03-13T04:13:50;98519.00;;;13.80
12875;BMP180;6505;51.114;13.128;2023-03-13T04:16:18;98513.00;;;13.80
12875;BMP180;6505;51.114;13.128;2023-03-13T04:18:47;98506.00;;;13.80
12875;BMP180;6505;51.114;13.128;2023-03-13T04:21:16;98503.00;;;13.80
12875;BMP180;6505;51.114;13.128;2023-03-13T04:23:49;98509.00;;;13.80
12875;BMP180;6505;51.114;13.128;2023-03-13T04:26:17;98496.00;;;13.80
12875;BMP180;6505;51.114;13.128;2023-03-13T04:28:45;98495.00;;;13.80
12875;BMP180;6505;51.114;13.128;2023-03-13T04:31:19;98482.00;;;13.80
12875;BMP180;6505;51.114;13.128;2023-03-13T04:34:15;98480.00;;;13.80
12875;BMP180;6505;51.114;13.128;2023-03-13T04:37:06;98473.00;;;13.80
12875;BMP180;6505;51.114;13.128;2023-03-13T04:39:52;98467.00;;;13.80
12875;BMP180;6505;51.114;13.128;2023-03-13T04:42:32;98469.00;;;13.80
12875;BMP180;6505;51.114;13.128;2023-03-13T04:45:28;98461.00;;;13.80
12875;BMP180;6505;51.114;13.128;2023-03-13T04:48:05;98456.00;;;13.80
12875;BMP180;6505;51.114;13.128;2023-03-13T04:50:53;98446.00;;;13.80
12875;BMP180;6505;51.114;13.128;2023-03-13T04:53:44;98444.00;;;13.60
12875;BMP180;6505;51.114;13.128;2023-03-13T04:56:32;98433.00;;;13.80
12875;BMP180;6505;51.114;13.128;2023-03-13T04:59:32;98435.00;;;13.80
12875;BMP180;6505;51.114;13.128;2023-03-13T05:02:00;98419.00;;;13.80
12875;BMP180;6505;51.114;13.128;2023-03-13T05:04:39;98414.00;;;13.80
12875;BMP180;6505;51.114;13.128;2023-03-13T05:07:25;98411.00;;;13.80
12875;BMP180;6505;51.114;13.128;2023-03-13T05:10:26;98396.00;;;13.80
12875;BMP180;6505;51.114;13.128;2023-03-13T05:13:03;98398.00;;;13.80
12875;BMP180;6505;51.114;13.128;2023-03-13T05:15:44;98390.00;;;13.80
12875;BMP180;6505;51.114;13.128;2023-03-13T05:18:32;98387.00;;;13.60
12875;BMP180;6505;51.114;13.128;2023-03-13T05:21:35;98365.00;;;13.80
12875;BMP180;6505;51.114;13.128;2023-03-13T05:24:20;98363.00;;;13.80
12875;BMP180;6505;51.114;13.128;2023-03-13T05:27:08;98367.00;;;13.80
12875;BMP180;6505;51.114;13.128;2023-03-13T05:29:49;98356.00;;;13.80
12875;BMP180;6505;51.114;13.128;2023-03-13T05:32:36;98351.00;;;13.80
12875;BMP180;6505;51.114;13.128;2023-03-13T05:35:22;98344.00;;;13.80
12875;BMP180;6505;51.114;13.128;2023-03-13T05:38:16;98352.00;;;13.80
12875;BMP180;6505;51.114;13.128;2023-03-13T05:41:03;98347.00;;;13.90
12875;BMP180;6505;51.114;13.128;2023-03-13T05:43:50;98353.00;;;13.90
12875;BMP180;6505;51.114;13.128;2023-03-13T05:46:36;98342.00;;;13.90
12875;BMP180;6505;51.114;13.128;2023-03-13T05:49:16;98347.00;;;13.90
12875;BMP180;6505;51.114;13.128;2023-03-13T05:52:02;98343.00;;;13.90
12875;BMP180;6505;51.114;13.128;2023-03-13T05:54:42;98340.00;;;13.90
12875;BMP180;6505;51.114;13.128;2023-03-13T05:57:33;98328.00;;;13.90
12875;BMP180;6505;51.114;13.128;2023-03-13T06:00:08;98331.00;;;13.90
12875;BMP180;6505;51.114;13.128;2023-03-13T06:02:39;98319.00;;;13.90
12875;BMP180;6505;51.114;13.128;2023-03-13T06:05:10;98303.00;;;13.90
12875;BMP180;6505;51.114;13.128;2023-03-13T06:07:38;98303.00;;;14.00
12875;BMP180;6505;51.114;13.128;2023-03-13T06:10:09;98299.00;;;14.00
12875;BMP180;6505;51.114;13.128;2023-03-13T06:12:38;98296.00;;;14.00
12875;BMP180;6505;51.114;13.128;2023-03-13T06:15:10;98289.00;;;14.00
12875;BMP180;6505;51.114;13.128;2023-03-13T06:18:13;98287.00;;;14.00
12875;BMP180;6505;51.114;13.128;2023-03-13T06:20:41;98261.00;;;14.00
12875;BMP180;6505;51.114;13.128;2023-03-13T06:23:09;98265.00;;;14.10
12875;BMP180;6505;51.114;13.128;2023-03-13T06:25:38;98270.00;;;14.10
12875;BMP180;6505;51.114;13.128;2023-03-13T06:28:06;98253.00;;;14.10
12875;BMP180;6505;51.114;13.128;2023-03-13T06:30:35;98257.00;;;14.10
12875;BMP180;6505;51.114;13.128;2023-03-13T06:33:03;98262.00;;;14.10
12875;BMP180;6505;51.114;13.128;2023-03-13T06:35:31;98255.00;;;14.10
12875;BMP180;6505;51.114;13.128;2023-03-13T06:38:15;98258.00;;;14.10
12875;BMP180;6505;51.114;13.128;2023-03-13T06:40:44;98249.00;;;14.10
12875;BMP180;6505;51.114;13.128;2023-03-13T06:43:13;98257.00;;;14.10
12875;BMP180;6505;51.114;13.128;2023-03-13T06:45:41;98253.00;;;14.20
12875;BMP180;6505;51.114;13.128;2023-03-13T06:48:09;98247.00;;;14.20
12875;BMP180;6505;51.114;13.128;2023-03-13T06:50:37;98230.00;;;14.20
12875;BMP180;6505;51.114;13.128;2023-03-13T06:53:05;98198.00;;;14.10
12875;BMP180;6505;51.114;13.128;2023-03-13T06:55:33;98227.00;;;14.20
12875;BMP180;6505;51.114;13.128;2023-03-13T06:58:03;98225.00;;;14.20
12875;BMP180;6505;51.114;13.128;2023-03-13T07:00:31;98232.00;;;14.20
12875;BMP180;6505;51.114;13.128;2023-03-13T07:03:00;98168.00;;;14.20
12875;BMP180;6505;51.114;13.128;2023-03-13T07:05:28;98225.00;;;14.20
12875;BMP180;6505;51.114;13.128;2023-03-13T07:07:56;98219.00;;;14.30
12875;BMP180;6505;51.114;13.128;2023-03-13T07:10:24;98200.00;;;14.20
12875;BMP180;6505;51.114;13.128;2023-03-13T07:12:51;98197.00;;;14.30
12875;BMP180;6505;51.114;13.128;2023-03-13T07:15:21;98183.00;;;14.30
12875;BMP180;6505;51.114;13.128;2023-03-13T07:17:49;98180.00;;;14.30
12875;BMP180;6505;51.114;13.128;2023-03-13T07:20:17;98164.00;;;14.30
12875;BMP180;6505;51.114;13.128;2023-03-13T07:22:50;98176.00;;;14.30
12875;BMP180;6505;51.114;13.128;2023-03-13T07:25:19;98169.00;;;14.30
12875;BMP180;6505;51.114;13.128;2023-03-13T07:27:50;98168.00;;;14.30
12875;BMP180;6505;51.114;13.128;2023-03-13T07:30:20;98156.00;;;14.30
12875;BMP180;6505;51.114;13.128;2023-03-13T07:32:48;98157.00;;;14.30
12875;BMP180;6505;51.114;13.128;2023-03-13T07:35:16;98151.00;;;14.40
12875;BMP180;6505;51.114;13.128;2023-03-13T07:37:44;98122.00;;;14.40
12875;BMP180;6505;51.114;13.128;2023-03-13T07:40:12;98162.00;;;14.40
12875;BMP180;6505;51.114;13.128;2023-03-13T07:42:41;98165.00;;;14.40
12875;BMP180;6505;51.114;13.128;2023-03-13T07:45:09;98163.00;;;14.40
12875;BMP180;6505;51.114;13.128;2023-03-13T07:47:39;98172.00;;;14.40
12875;BMP180;6505;51.114;13.128;2023-03-13T07:50:08;98181.00;;;14.40
12875;BMP180;6505;51.114;13.128;2023-03-13T07:52:36;98181.00;;;14.40
12875;BMP180;6505;51.114;13.128;2023-03-13T07:55:05;98200.00;;;14.40
12875;BMP180;6505;51.114;13.128;2023-03-13T07:57:33;98198.00;;;14.50
12875;BMP180;6505;51.114;13.128;2023-03-13T08:00:01;98187.00;;;14.50
12875;BMP180;6505;51.114;13.128;2023-03-13T08:02:39;98197.00;;;14.50
12875;BMP180;6505;51.114;13.128;2023-03-13T08:05:07;98186.00;;;14.50
12875;BMP180;6505;51.114;13.128;2023-03-13T08:07:36;98193.00;;;14.50
12875;BMP180;6505;51.114;13.128;2023-03-13T08:10:04;98186.00;;;14.50
12875;BMP180;6505;51.114;13.128;2023-03-13T08:12:33;98197.00;;;14.60
12875;BMP180;6505;51.114;13.128;2023-03-13T08:15:01;98198.00;;;14.60
12875;BMP180;6505;51.114;13.128;2023-03-13T08:17:29;98184.00;;;14.60
12875;BMP180;6505;51.114;13.128;2023-03-13T08:19:58;98199.00;;;14.60
12875;BMP180;6505;51.114;13.128;2023-03-13T08:22:26;98194.00;;;14.60
12875;BMP180;6505;51.114;13.128;2023-03-13T08:24:54;98191.00;;;14.50
12875;BMP180;6505;51.114;13.128;2023-03-13T08:27:22;98183.00;;;14.60
12875;BMP180;6505;51.114;13.128;2023-03-13T08:29:50;98191.00;;;14.60
12875;BMP180;6505;51.114;13.128;2023-03-13T08:32:18;98200.00;;;14.60
12875;BMP180;6505;51.114;13.128;2023-03-13T08:34:47;98183.00;;;14.50
12875;BMP180;6505;51.114;13.128;2023-03-13T08:37:17;98168.00;;;14.50
12875;BMP180;6505;51.114;13.128;2023-03-13T08:39:44;98169.00;;;14.70
12875;BMP180;6505;51.114;13.128;2023-03-13T08:42:14;98168.00;;;14.70
12875;BMP180;6505;51.114;13.128;2023-03-13T08:44:42;98151.00;;;14.70
12875;BMP180;6505;51.114;13.128;2023-03-13T08:47:10;98168.00;;;14.70
12875;BMP180;6505;51.114;13.128;2023-03-13T08:49:38;98156.00;;;14.70
12875;BMP180;6505;51.114;13.128;2023-03-13T08:52:07;98165.00;;;14.80
12875;BMP180;6505;51.114;13.128;2023-03-13T08:54:36;98159.00;;;14.80
12875;BMP180;6505;51.114;13.128;2023-03-13T08:57:04;98171.00;;;14.80
12875;BMP180;6505;51.114;13.128;2023-03-13T08:59:32;98158.00;;;14.80
12875;BMP180;6505;51.114;13.128;2023-03-13T09:02:00;98156.00;;;14.80
12875;BMP180;6505;51.114;13.128;2023-03-13T09:04:29;98148.00;;;14.80
12875;BMP180;6505;51.114;13.128;2023-03-13T09:06:57;98152.00;;;14.90
12875;BMP180;6505;51.114;13.128;2023-03-13T09:09:24;98157.00;;;14.90
12875;BMP180;6505;51.114;13.128;2023-03-13T09:11:54;98181.00;;;14.90
12875;BMP180;6505;51.114;13.128;2023-03-13T09:14:22;98185.00;;;14.90
12875;BMP180;6505;51.114;13.128;2023-03-13T09:16:50;98195.00;;;14.90
12875;BMP180;6505;51.114;13.128;2023-03-13T09:19:18;98193.00;;;14.90
12875;BMP180;6505;51.114;13.128;2023-03-13T09:21:45;98189.00;;;14.90
12875;BMP180;6505;51.114;13.128;2023-03-13T09:24:15;98171.00;;;14.90
12875;BMP180;6505;51.114;13.128;2023-03-13T09:26:43;98177.00;;;14.90
12875;BMP180;6505;51.114;13.128;2023-03-13T09:29:27;98165.00;;;15.00
12875;BMP180;6505;51.114;13.128;2023-03-13T09:31:55;98170.00;;;15.00
12875;BMP180;6505;51.114;13.128;2023-03-13T09:34:23;98181.00;;;15.00
12875;BMP180;6505;51.114;13.128;2023-03-13T09:36:51;98174.00;;;15.00
12875;BMP180;6505;51.114;13.128;2023-03-13T09:39:19;98162.00;;;15.10
12875;BMP180;6505;51.114;13.128;2023-03-13T09:41:53;98167.00;;;15.00
12875;BMP180;6505;51.114;13.128;2023-03-13T09:44:29;98159.00;;;15.10
12875;BMP180;6505;51.114;13.128;2023-03-13T09:47:03;98158.00;;;15.10
12875;BMP180;6505;51.114;13.128;2023-03-13T09:49:37;98157.00;;;15.10
12875;BMP180;6505;51.114;13.128;2023-03-13T09:52:15;98160.00;;;15.10
12875;BMP180;6505;51.114;13.128;2023-03-13T09:54:50;98167.00;;;15.10
12875;BMP180;6505;51.114;13.128;2023-03-13T09:57:29;98146.00;;;15.10
12875;BMP180;6505;51.114;13.128;2023-03-13T10:00:06;98139.00;;;15.10
12875;BMP180;6505;51.114;13.128;2023-03-13T10:02:39;98147.00;;;15.20
12875;BMP180;6505;51.114;13.128;2023-03-13T10:05:15;98103.00;;;15.10
12875;BMP180;6505;51.114;13.128;2023-03-13T10:07:45;98139.00;;;15.20
12875;BMP180;6505;51.114;13.128;2023-03-13T10:10:15;98123.00;;;15.20
12875;BMP180;6505;51.114;13.128;2023-03-13T10:12:46;98132.00;;;15.20
12875;BMP180;6505;51.114;13.128;2023-03-13T10:15:32;98135.00;;;15.20
12875;BMP180;6505;51.114;13.128;2023-03-13T10:18:15;98136.00;;;15.20
12875;BMP180;6505;51.114;13.128;2023-03-13T10:20:47;98133.00;;;15.20
12875;BMP180;6505;51.114;13.128;2023-03-13T10:23:25;98147.00;;;15.20
12875;BMP180;6505;51.114;13.128;2023-03-13T10:25:54;98153.00;;;15.30
12875;BMP180;6505;51.114;13.128;2023-03-13T10:28:22;98154.00;;;15.30
12875;BMP180;6505;51.114;13.128;2023-03-13T10:31:01;98150.00;;;15.30
12875;BMP180;6505;51.114;13.128;2023-03-13T10:33:31;98153.00;;;15.30
12875;BMP180;6505;51.114;13.128;2023-03-13T10:36:06;98149.00;;;15.20
12875;BMP180;6505;51.114;13.128;2023-03-13T10:38:49;98146.00;;;15.30
12875;BMP180;6505;51.114;13.128;2023-03-13T10:41:25;98109.00;;;15.40
12875;BMP180;6505;51.114;13.128;2023-03-13T10:43:58;98153.00;;;15.30
12875;BMP180;6505;51.114;13.128;2023-03-13T10:46:31;98147.00;;;15.40
12875;BMP180;6505;51.114;13.128;2023-03-13T10:49:02;98152.00;;;15.50
12875;BMP180;6505;51.114;13.128;2023-03-13T10:51:36;98134.00;;;15.50
12875;BMP180;6505;51.114;13.128;2023-03-13T10:54:14;98132.00;;;15.50
12875;BMP180;6505;51.114;13.128;2023-03-13T10:56:43;98142.00;;;15.50
12875;BMP180;6505;51.114;13.128;2023-03-13T10:59:22;98142.00;;;15.50
12875;BMP180;6505;51.114;13.128;2023-03-13T11:01:57;98148.00;;;15.50
12875;BMP180;6505;51.114;13.128;2023-03-13T11:04:32;98146.00;;;15.60
12875;BMP180;6505;51.114;13.128;2023-03-13T11:07:04;98144.00;;;15.60
12875;BMP180;6505;51.114;13.128;2023-03-13T11:09:32;98146.00;;;15.60
12875;BMP180;6505;51.114;13.128;2023-03-13T11:12:04;98134.00;;;15.60
12875;BMP180;6505;51.114;13.128;2023-03-13T11:14:33;98132.00;;;15.70
12875;BMP180;6505;51.114;13.128;2023-03-13T11:17:17;98138.00;;;15.60
12875;BMP180;6505;51.114;13.128;2023-03-13T11:20:01;98135.00;;;15.70
12875;BMP180;6505;51.114;13.128;2023-03-13T11:23:04;98141.00;;;15.60
12875;BMP180;6505;51.114;13.128;2023-03-13T11:25:42;98134.00;;;15.70
12875;BMP180;6505;51.114;13.128;2023-03-13T11:28:27;98133.00;;;15.70
12875;BMP180;6505;51.114;13.128;2023-03-13T11:31:08;98119.00;;;15.70
12875;BMP180;6505;51.114;13.128;2023-03-13T11:33:47;98125.00;;;15.70
12875;BMP180;6505;51.114;13.128;2023-03-13T11:36:24;98103.00;;;15.70
12875;BMP180;6505;51.114;13.128;2023-03-13T11:39:16;98098.00;;;15.80
12875;BMP180;6505;51.114;13.128;2023-03-13T11:41:59;98110.00;;;15.80
12875;BMP180;6505;51.114;13.128;2023-03-13T11:44:30;98088.00;;;15.80
12875;BMP180;6505;51.114;13.128;2023-03-13T11:47:19;98094.00;;;15.80
12875;BMP180;6505;51.114;13.128;2023-03-13T11:50:09;98050.00;;;15.90
12875;BMP180;6505;51.114;13.128;2023-03-13T11:53:12;98096.00;;;15.90
12875;BMP180;6505;51.114;13.128;2023-03-13T11:56:06;98088.00;;;15.90
12875;BMP180;6505;51.114;13.128;2023-03-13T11:59:03;98066.00;;;15.90
12875;BMP180;6505;51.114;13.128;2023-03-13T12:01:39;98062.00;;;15.90
12875;BMP180;6505;51.114;13.128;2023-03-13T12:04:17;98050.00;;;15.90
12875;BMP180;6505;51.114;13.128;2023-03-13T12:06:56;98042.00;;;16.00
12875;BMP180;6505;51.114;13.128;2023-03-13T12:09:34;98037.00;;;16.00
12875;BMP180;6505;51.114;13.128;2023-03-13T12:12:15;98031.00;;;16.00
12875;BMP180;6505;51.114;13.128;2023-03-13T12:14:52;98034.00;;;16.00
12875;BMP180;6505;51.114;13.128;2023-03-13T12:17:31;97983.00;;;16.10
12875;BMP180;6505;51.114;13.128;2023-03-13T12:20:05;98021.00;;;16.10
12875;BMP180;6505;51.114;13.128;2023-03-13T12:22:41;98007.00;;;16.10
12875;BMP180;6505;51.114;13.128;2023-03-13T12:25:17;97989.00;;;16.10
12875;BMP180;6505;51.114;13.128;2023-03-13T12:27:52;98009.00;;;16.20
12875;BMP180;6505;51.114;13.128;2023-03-13T12:30:32;97988.00;;;16.20
12875;BMP180;6505;51.114;13.128;2023-03-13T12:33:16;98003.00;;;16.20
12875;BMP180;6505;51.114;13.128;2023-03-13T12:35:57;97999.00;;;16.20
12875;BMP180;6505;51.114;13.128;2023-03-13T12:38:37;98000.00;;;16.30
12875;BMP180;6505;51.114;13.128;2023-03-13T12:41:19;97994.00;;;16.30
12875;BMP180;6505;51.114;13.128;2023-03-13T12:43:53;97992.00;;;16.30
12875;BMP180;6505;51.114;13.128;2023-03-13T12:46:42;97992.00;;;16.40
12875;BMP180;6505;51.114;13.128;2023-03-13T12:49:47;97996.00;;;16.40
12875;BMP180;6505;51.114;13.128;2023-03-13T12:52:53;97997.00;;;16.40
12875;BMP180;6505;51.114;13.128;2023-03-13T12:56:05;97987.00;;;16.40
12875;BMP180;6505;51.114;13.128;2023-03-13T12:58:43;97992.00;;;16.50
12875;BMP180;6505;51.114;13.128;2023-03-13T13:01:20;97989.00;;;16.50
12875;BMP180;6505;51.114;13.128;2023-03-13T13:03:57;97985.00;;;16.60
12875;BMP180;6505;51.114;13.128;2023-03-13T13:06:28;97985.00;;;16.60
12875;BMP180;6505;51.114;13.128;2023-03-13T13:09:22;97963.00;;;16.60
12875;BMP180;6505;51.114;13.128;2023-03-13T13:11:54;97929.00;;;16.70
12875;BMP180;6505;51.114;13.128;2023-03-13T13:15:00;97919.00;;;16.70
12875;BMP180;6505;51.114;13.128;2023-03-13T13:17:44;97915.00;;;16.70
12875;BMP180;6505;51.114;13.128;2023-03-13T13:20:43;97943.00;;;16.70
12875;BMP180;6505;51.114;13.128;2023-03-13T13:23:33;97939.00;;;16.80
12875;BMP180;6505;51.114;13.128;2023-03-13T13:26:47;97955.00;;;16.80
12875;BMP180;6505;51.114;13.128;2023-03-13T13:29:57;97954.00;;;16.80
12875;BMP180;6505;51.114;13.128;2023-03-13T13:32:44;97958.00;;;16.80
12875;BMP180;6505;51.114;13.128;2023-03-13T13:35:28;97948.00;;;16.90
12875;BMP180;6505;51.114;13.128;2023-03-13T13:38:28;97970.00;;;16.90
12875;BMP180;6505;51.114;13.128;2023-03-13T13:41:21;97972.00;;;16.90
12875;BMP180;6505;51.114;13.128;2023-03-13T13:44:25;97958.00;;;17.00
12875;BMP180;6505;51.114;13.128;2023-03-13T13:46:56;97975.00;;;17.00
12875;BMP180;6505;51.114;13.128;2023-03-13T13:49:56;97983.00;;;17.00
12875;BMP180;6505;51.114;13.128;2023-03-13T13:52:36;97927.00;;;17.10
12875;BMP180;6505;51.114;13.128;2023-03-13T13:55:41;97971.00;;;17.10
12875;BMP180;6505;51.114;13.128;2023-03-13T13:58:18;97972.00;;;17.10
12875;BMP180;6505;51.114;13.128;2023-03-13T14:00:54;97975.00;;;17.20
12875;BMP180;6505;51.114;13.128;2023-03-13T14:03:27;97970.00;;;17.20
12875;BMP180;6505;51.114;13.128;2023-03-13T14:06:00;97966.00;;;17.30
12875;BMP180;6505;51.114;13.128;2023-03-13T14:08:32;97952.00;;;17.30
12875;BMP180;6505;51.114;13.128;2023-03-13T14:11:21;97957.00;;;17.30
12875;BMP180;6505;51.114;13.128;2023-03-13T14:14:12;97962.00;;;17.30
12875;BMP180;6505;51.114;13.128;2023-03-13T14:16:43;97946.00;;;17.40
12875;BMP180;6505;51.114;13.128;2023-03-13T14:19:27;97946.00;;;17.40
12875;BMP180;6505;51.114;13.128;2023-03-13T14:22:01;97914.00;;;17.40
12875;BMP180;6505;51.114;13.128;2023-03-13T14:24:29;97948.00;;;17.50
12875;BMP180;6505;51.114;13.128;2023-03-13T14:26:58;97953.00;;;17.50
12875;BMP180;6505;51.114;13.128;2023-03-13T14:29:27;97953.00;;;17.50
12875;BMP180;6505;51.114;13.128;2023-03-13T14:31:58;97941.00;;;17.50
12875;BMP180;6505;51.114;13.128;2023-03-13T14:34:27;97947.00;;;17.60
12875;BMP180;6505;51.114;13.128;2023-03-13T14:37:00;97946.00;;;17.60
12875;BMP180;6505;51.114;13.128;2023-03-13T14:39:45;97942.00;;;17.60
12875;BMP180;6505;51.114;13.128;2023-03-13T14:42:16;97933.00;;;17.60
12875;BMP180;6505;51.114;13.128;2023-03-13T14:44:47;97931.00;;;17.60
12875;BMP180;6505;51.114;13.128;2023-03-13T14:47:22;97921.00;;;17.60
12875;BMP180;6505;51.114;13.128;2023-03-13T14:49:58;97909.00;;;17.60
12875;BMP180;6505;51.114;13.128;2023-03-13T14:52:29;97915.00;;;17.70
12875;BMP180;6505;51.114;13.128;2023-03-13T14:55:00;97918.00;;;17.70